Aérodrome :
LOGIN :

S'inscrire | Disclaimer

   EN    FR    IT 

 










Légende :    VFR   VFR Marginal   IFR   IFR Intensif   IFR Très Intensif
Visi : 
Plafond : 
>= 8 km
>= 3000ft
5 à 8 km
1000 à 3000 ft
1500m à 5 km
500 à 1000 ft
800 à 1500m
200 à 500 ft
< 800m
< 200 ft
Symboles :   Orages  Brouillard  Fortes neiges  Fortes précipitations  Vent > 20 kt
SIGMETs :   Divers  Orages  Givrage  Turbulence  Onde Orograph.  Cendres Volcan.







- Altitude de l'aérodrome : 512 ft
- Code IATA : URO
- Voir les cartes d'approche


LFOP - Rouen Vallée de Seine

DERNIER METAR :
  • 240930Z AUTO VRB02KT 9999 BKN017 OVC026 19/13 Q1027 TEMPO BKN013

METARs EXPIRÉS :
  • 240900Z AUTO 31003KT 220V350 8000 SCT013 OVC028 18/14 Q1027 BECMG BKN013
  • 240830Z AUTO 28004KT 250V320 8000 FEW009 OVC028 17/14 Q1027 BECMG BKN013
  • 240800Z AUTO 27004KT 230V310 8000 FEW008 OVC027 16/14 Q1026 BECMG BKN013
  • 240730Z AUTO 27004KT 240V310 7000 BKN007 OVC027 16/13 Q1026 BECMG BKN013
  • 240700Z AUTO 28003KT 250V320 6000 BKN005 OVC027 15/14 Q1026 TEMPO 0600 FG VV///

TAF TAF LFOP
Valide du 24 à 06h jusqu'au 25 à 06h UTC


240500Z 2406/2506 27005KT 4000 BR OVC005
PROB30
TEMPO 2406/2408 0600 FG VV///
BECMG 2408/2411 9999 NSW BKN013
BECMG 2411/2413 36010KT SCT025
ATIS : +33 2 35 80 80 34
Météo : +33 2 32 86 52 80
Pas de NOTAMs connus pour ce terrain.



MET'MAP, la Météo Aéronautique d'un coup d'oeil ! - Copyright ORBIFLY Décembre 2007 - Disclaimer

ORBIFLY MET'MAP TEAM :

Programmation & Développement : Alexandra Zaïnal
Conception & Développement : Baudouin d'Aumeries
Co-Programmation & Développement : Marc-Olivier Méhu
Soutien technique & logistique : Manuel Goepfert

Contact : metmap@orbifly.com




SOURCES & CREDITS :

   NOAA